Portada
METAR-TAF:

METAR-TAF

Aeroports :

Tumbes, Perú

latitud: 03-33S, longitud: 080-24W, altitud: 25 m

Observació

L'informe es va fer fa 9 hores i 19 minuts, a les 03:00 UTC
Vent 3 kt del Nord-Oest
Temperatura 24°C
Humitat 89%
Pressió 1012 hPa
Visibilitat 10 km o més
Núvols disperses a una alçada de 3000 ft

METAR: SPME 230300Z 31003KT 9999 SCT030 24/22 Q1012 RMK BIRD HAZARD RWY 32/14 PP000

Hora: 07:19 (12:19 UTC)

Pronòstic

L'informe es va fer fa 1 hora i 19 minuts, a les 11:00 UTC
Pronòstic vàlid del 23 a les 12 UTC al 24 a les 12 UTC
Vent 3 kt del Oest
Visibilitat 10 km o més
Cel ennuvolat a una alçada de 1700 ft
Evolucionant progressivament
l' 23 a les 19 UTC al 23 a les 20 UTC
Vent 10 kt del Nord
Evolucionant progressivament
l' 23 a les 23 UTC al 24 a les 01 UTC
Vent 5 kt del Oest/Nord-Oest

TAF: SPME 231100Z 2312/2412 26003KT 9999 BKN017 TX29/2319Z TN22/2411Z BECMG 2319/2320 36010KT BECMG 2323/2401 30005KT

Observacions i pronòstics meteorològics de més de 4000 aeroports (METAR i TAF).

Les estacions disponibles són els punts grocs i vermells al mapa.

Posi el ratolí al punt desitjat per veure el nom de l'estació.

Feu clic per veure les observacions i els pronòstics meteorològics.

Per canviar el mapa: feu clic els botons verds amb una creu de color negre per apropar; al botó verd amb un guió per allunyar la imatge; o en les fletxes verdes per a mapes adjacents.


METAR-TAF: